createdAt,value
2018-09-05T00:00:19.391Z,8.37
2018-09-05T00:02:48.796Z,6.83
2018-09-05T00:05:18.411Z,7.37
2018-09-05T00:07:47.549Z,9.23
2018-09-05T00:10:17.429Z,12.10
2018-09-05T00:12:47.005Z,8.60
2018-09-05T00:15:16.441Z,8.83
2018-09-05T00:17:46.165Z,7.53
2018-09-05T00:20:15.584Z,8.90
2018-09-05T00:22:44.980Z,6.57
2018-09-05T00:25:14.264Z,10.80
2018-09-05T00:27:43.796Z,9.77
2018-09-05T00:30:13.725Z,8.23
2018-09-05T00:32:43.331Z,8.23
2018-09-05T00:35:12.833Z,7.77
2018-09-05T00:37:42.320Z,7.17
2018-09-05T00:40:11.547Z,6.23
2018-09-05T00:42:40.852Z,7.20
2018-09-05T00:45:10.302Z,7.63
2018-09-05T00:47:39.618Z,9.57
2018-09-05T00:50:09.115Z,8.37
2018-09-05T00:52:38.447Z,9.77
2018-09-05T00:55:07.832Z,6.97
2018-09-05T00:57:37.282Z,6.43
2018-09-05T01:00:06.511Z,6.10
2018-09-05T01:02:36.294Z,7.63
2018-09-05T01:05:05.731Z,10.03
2018-09-05T01:07:35.554Z,8.67
2018-09-05T01:10:05.022Z,8.03
2018-09-05T01:12:34.281Z,7.70
2018-09-05T01:15:04.164Z,6.77
2018-09-05T01:17:34.309Z,6.30
2018-09-05T01:20:04.026Z,7.17
2018-09-05T01:22:33.385Z,6.77
2018-09-05T01:25:03.113Z,6.70
2018-09-05T01:27:32.536Z,9.07
2018-09-05T01:30:01.762Z,7.30
2018-09-05T01:32:31.254Z,9.30
2018-09-05T01:35:00.906Z,7.90
2018-09-05T01:37:30.523Z,7.97
2018-09-05T01:40:00.068Z,6.97
2018-09-05T01:42:29.790Z,7.73
2018-09-05T01:44:59.056Z,7.47
2018-09-05T01:47:28.692Z,9.40
2018-09-05T01:49:58.190Z,10.73
2018-09-05T01:52:27.594Z,8.40
2018-09-05T01:54:56.886Z,9.17
2018-09-05T01:57:26.233Z,9.97
2018-09-05T01:59:56.383Z,6.87
2018-09-05T02:02:26.190Z,6.57
2018-09-05T02:04:56.106Z,8.90
2018-09-05T02:07:25.482Z,10.50
2018-09-05T02:09:55.373Z,5.90
2018-09-05T02:12:24.792Z,10.13
2018-09-05T02:14:54.630Z,7.20
2018-09-05T02:17:24.104Z,8.23
2018-09-05T02:19:53.666Z,8.33
2018-09-05T02:22:23.121Z,7.73
2018-09-05T02:24:52.806Z,8.70
2018-09-05T02:27:22.268Z,7.40
2018-09-05T02:29:51.884Z,7.23
2018-09-05T02:32:21.352Z,8.43
2018-09-05T02:34:50.624Z,7.27
2018-09-05T02:37:19.835Z,7.37
2018-09-05T02:39:49.068Z,7.23
2018-09-05T02:42:19.044Z,7.00
2018-09-05T02:44:48.946Z,7.93
2018-09-05T02:47:18.851Z,9.40
2018-09-05T02:49:48.358Z,7.90
2018-09-05T02:52:17.809Z,7.97
2018-09-05T02:54:47.003Z,9.13
2018-09-05T02:57:16.976Z,8.07
2018-09-05T02:59:46.638Z,9.40
2018-09-05T03:02:16.324Z,7.33
2018-09-05T03:04:45.875Z,9.50
2018-09-05T03:07:15.982Z,8.43
2018-09-05T03:09:45.533Z,10.13
2018-09-05T03:12:19.439Z,9.43
2018-09-05T03:14:49.748Z,7.07
2018-09-05T03:17:19.396Z,8.80
2018-09-05T03:19:48.750Z,8.57
2018-09-05T03:22:18.476Z,7.97
2018-09-05T03:24:48.172Z,11.50
2018-09-05T03:27:17.692Z,8.40
2018-09-05T03:29:47.220Z,6.87
2018-09-05T03:32:16.414Z,8.77
2018-09-05T03:34:45.959Z,7.97
2018-09-05T03:37:15.324Z,7.73
2018-09-05T03:39:44.922Z,9.37
2018-09-05T03:42:14.626Z,11.13
2018-09-05T03:44:44.233Z,8.40
2018-09-05T03:47:13.964Z,10.47
2018-09-05T03:49:43.450Z,9.47
2018-09-05T03:52:13.389Z,8.50
2018-09-05T03:54:42.989Z,11.00
2018-09-05T04:40:07.516Z,9.77
2018-09-05T04:42:36.898Z,9.47
2018-09-05T04:45:06.622Z,10.97
2018-09-05T04:47:36.949Z,8.80
2018-09-05T04:50:07.143Z,9.13
2018-09-05T04:52:38.146Z,10.40
2018-09-05T04:55:08.198Z,11.10
2018-09-05T04:57:39.692Z,11.60
2018-09-05T05:00:10.109Z,12.33
2018-09-05T05:02:40.928Z,10.47
2018-09-05T05:05:11.559Z,14.50
2018-09-05T05:07:42.307Z,10.93
2018-09-05T05:10:13.077Z,12.87
2018-09-05T05:12:43.594Z,12.97
2018-09-05T05:15:13.847Z,11.63
2018-09-05T05:17:44.395Z,14.30
2018-09-05T05:20:14.784Z,10.43
2018-09-05T05:22:46.484Z,9.30
2018-09-05T05:25:17.759Z,11.17
2018-09-05T05:27:49.279Z,15.03
2018-09-05T05:30:20.061Z,10.80
2018-09-05T05:32:51.386Z,13.97
2018-09-05T05:35:22.093Z,12.00
2018-09-05T05:37:52.143Z,12.37
2018-09-05T05:40:23.256Z,10.53
2018-09-05T05:42:53.324Z,16.00
2018-09-05T05:45:23.797Z,10.63
2018-09-05T05:47:54.881Z,18.73
2018-09-05T05:50:25.650Z,20.50
2018-09-05T05:52:59.769Z,19.17
2018-09-05T05:55:30.729Z,16.23
2018-09-05T05:58:01.507Z,14.13
2018-09-05T06:00:32.391Z,17.67
2018-09-05T06:03:03.126Z,10.30
2018-09-05T06:05:34.243Z,13.33
2018-09-05T06:08:04.787Z,12.23
2018-09-05T06:10:36.288Z,15.53
2018-09-05T06:13:06.784Z,11.17
2018-09-05T06:15:37.274Z,11.73
2018-09-05T06:18:09.580Z,14.10
2018-09-05T06:20:40.871Z,15.63
2018-09-05T06:23:11.374Z,15.93
2018-09-05T06:25:41.723Z,15.70
2018-09-05T06:28:14.448Z,17.03
2018-09-05T06:30:45.407Z,17.93
2018-09-05T06:33:16.581Z,18.70
2018-09-05T06:35:47.452Z,23.90
2018-09-05T06:38:18.186Z,26.37
2018-09-05T06:40:48.353Z,24.77
2018-09-05T06:43:20.408Z,28.73
2018-09-05T06:45:51.017Z,33.20
2018-09-05T06:48:25.469Z,30.20
2018-09-05T06:51:01.628Z,28.70
2018-09-05T06:53:33.034Z,26.13
2018-09-05T06:56:05.000Z,28.07
2018-09-05T06:58:35.794Z,26.37
2018-09-05T07:01:06.303Z,28.33
2018-09-05T07:03:37.254Z,24.27
2018-09-05T07:06:08.738Z,25.50
2018-09-05T07:08:39.791Z,24.87
2018-09-05T07:11:10.749Z,27.40
2018-09-05T07:13:41.405Z,29.67
2018-09-05T07:16:12.132Z,26.50
2018-09-05T07:18:43.352Z,29.20
2018-09-05T07:21:14.414Z,28.00
2018-09-05T07:23:44.834Z,28.70
2018-09-05T07:26:15.816Z,24.83
2018-09-05T07:28:46.093Z,25.13
2018-09-05T07:31:16.953Z,22.77
2018-09-05T07:33:47.738Z,22.33
2018-09-05T07:36:18.879Z,20.67
2018-09-05T07:38:49.843Z,22.07
2018-09-05T07:41:20.553Z,19.43
2018-09-05T07:43:50.998Z,17.27
2018-09-05T07:46:21.731Z,17.90
2018-09-05T07:48:52.087Z,17.33
2018-09-05T07:51:22.498Z,17.83
2018-09-05T07:53:53.309Z,18.90
2018-09-05T07:56:24.487Z,21.77
2018-09-05T07:58:54.553Z,20.83
2018-09-05T08:01:25.022Z,23.17
2018-09-05T08:03:56.299Z,20.37
2018-09-05T08:06:26.393Z,19.57
2018-09-05T08:08:57.109Z,20.10
2018-09-05T08:11:28.145Z,22.63
2018-09-05T08:14:02.147Z,19.47
2018-09-05T08:16:32.297Z,17.77
2018-09-05T08:19:03.299Z,15.80
2018-09-05T08:21:33.353Z,19.67
2018-09-05T08:24:04.112Z,17.77
2018-09-05T08:26:34.673Z,16.03
2018-09-05T08:29:05.605Z,14.47
2018-09-05T08:31:36.773Z,15.20
2018-09-05T08:34:07.293Z,15.93
2018-09-05T08:36:38.779Z,12.60
2018-09-05T08:39:12.957Z,13.77
2018-09-05T08:41:43.406Z,13.17
2018-09-05T08:44:13.936Z,15.57
2018-09-05T08:46:44.038Z,14.00
2018-09-05T08:49:14.921Z,12.67
2018-09-05T08:51:46.368Z,15.03
2018-09-05T08:54:17.337Z,14.17
2018-09-05T08:56:48.184Z,14.60
2018-09-05T08:59:18.185Z,13.63
2018-09-05T09:01:48.961Z,14.77
2018-09-05T09:04:19.786Z,12.80
2018-09-05T09:06:50.686Z,13.00
2018-09-05T09:09:20.934Z,13.43
2018-09-05T09:11:51.614Z,12.57
2018-09-05T09:14:22.232Z,16.80
2018-09-05T09:16:52.589Z,14.63
2018-09-05T09:19:23.212Z,12.63
2018-09-05T09:21:53.313Z,15.77
2018-09-05T09:24:24.535Z,14.00
2018-09-05T09:26:55.153Z,14.80
2018-09-05T09:29:25.178Z,15.80
2018-09-05T09:31:55.784Z,11.57
2018-09-05T09:34:26.129Z,12.73
2018-09-05T09:36:56.760Z,13.63
2018-09-05T09:39:27.299Z,13.80
2018-09-05T09:41:58.417Z,12.13
2018-09-05T09:44:28.644Z,12.73
2018-09-05T09:46:59.569Z,12.30
2018-09-05T09:49:29.714Z,11.53
2018-09-05T09:52:04.911Z,10.33
2018-09-05T09:54:34.756Z,12.63
2018-09-05T09:57:05.202Z,13.90
2018-09-05T09:59:35.816Z,10.20
2018-09-05T10:02:11.186Z,14.77
2018-09-05T10:04:47.091Z,12.20
2018-09-05T10:07:22.318Z,11.83
2018-09-05T10:10:00.036Z,9.37
2018-09-05T10:12:34.791Z,8.63
2018-09-05T10:15:09.907Z,10.60
2018-09-05T10:17:40.771Z,12.67
2018-09-05T10:20:10.907Z,9.60
2018-09-05T10:22:41.375Z,10.47
2018-09-05T10:25:12.035Z,8.70
2018-09-05T10:27:44.710Z,10.47
2018-09-05T10:30:15.475Z,9.10
2018-09-05T10:32:45.297Z,7.40
2018-09-05T10:35:16.064Z,10.30
2018-09-05T10:37:46.394Z,7.30
2018-09-05T10:40:17.121Z,9.97
2018-09-05T10:42:47.293Z,6.10
2018-09-05T10:45:17.653Z,6.73
2018-09-05T10:47:47.735Z,7.73
2018-09-05T10:50:18.308Z,8.00
2018-09-05T10:52:49.365Z,9.10
2018-09-05T10:55:19.449Z,6.37
2018-09-05T10:57:49.817Z,7.10
2018-09-05T11:00:20.083Z,4.97
2018-09-05T11:02:49.970Z,5.17
2018-09-05T11:05:19.915Z,7.47
2018-09-05T11:07:49.853Z,5.93
2018-09-05T11:10:19.974Z,4.60
2018-09-05T11:12:49.953Z,6.00
2018-09-05T11:15:19.894Z,5.37
2018-09-05T11:17:50.229Z,7.50
2018-09-05T11:20:20.293Z,4.73
2018-09-05T11:22:50.687Z,6.23
2018-09-05T11:25:20.687Z,6.63
2018-09-05T11:27:51.262Z,7.13
2018-09-05T11:30:21.284Z,5.43
2018-09-05T11:32:51.382Z,5.57
2018-09-05T11:35:21.274Z,7.70
2018-09-05T11:37:52.084Z,9.50
2018-09-05T11:40:22.320Z,6.63
2018-09-05T11:42:52.443Z,6.47
2018-09-05T11:45:22.568Z,5.77
2018-09-05T11:47:53.254Z,6.37
2018-09-05T11:50:23.553Z,6.57
2018-09-05T11:52:53.471Z,7.60
2018-09-05T11:55:24.021Z,5.13
2018-09-05T11:57:54.261Z,5.40
2018-09-05T12:00:25.047Z,5.83
2018-09-05T12:02:54.833Z,7.27
2018-09-05T12:05:25.030Z,4.80
2018-09-05T12:07:54.523Z,5.63
2018-09-05T12:10:24.584Z,8.20
2018-09-05T12:12:54.546Z,5.70
2018-09-05T12:15:24.625Z,5.40
2018-09-05T12:17:54.600Z,5.43
2018-09-05T12:20:25.071Z,5.03
2018-09-05T12:22:55.004Z,5.20
2018-09-05T12:25:24.833Z,7.33
2018-09-05T12:27:54.884Z,6.10
2018-09-05T12:30:24.949Z,5.20
2018-09-05T12:32:54.760Z,5.40
2018-09-05T12:35:24.784Z,6.07
2018-09-05T12:37:54.792Z,6.17
2018-09-05T12:40:24.687Z,4.80
2018-09-05T12:42:54.510Z,6.07
2018-09-05T12:45:24.456Z,11.47
2018-09-05T12:47:54.860Z,6.37
2018-09-05T12:50:31.006Z,8.53
2018-09-05T12:53:00.751Z,6.23
2018-09-05T12:55:30.673Z,7.70
2018-09-05T12:58:00.716Z,9.63
2018-09-05T13:00:30.601Z,8.47
2018-09-05T13:03:00.699Z,5.40
2018-09-05T13:05:30.984Z,5.83
2018-09-05T13:08:01.229Z,7.37
2018-09-05T13:10:31.005Z,5.93
2018-09-05T13:13:00.647Z,5.33
2018-09-05T13:15:30.819Z,6.33
2018-09-05T13:18:00.546Z,5.30
2018-09-05T13:20:30.953Z,5.20
2018-09-05T13:23:00.927Z,6.80
2018-09-05T13:25:30.626Z,6.43
2018-09-05T13:28:00.157Z,6.20
2018-09-05T13:30:30.289Z,7.13
2018-09-05T13:33:00.215Z,8.37
2018-09-05T13:35:29.712Z,9.73
2018-09-05T13:37:59.624Z,8.50
2018-09-05T13:40:29.914Z,5.63
2018-09-05T13:43:00.750Z,8.00
2018-09-05T13:45:31.077Z,7.07
2018-09-05T13:48:00.993Z,12.43
2018-09-05T13:50:31.223Z,6.43
2018-09-05T13:53:01.417Z,6.73
2018-09-05T13:55:33.568Z,9.27
2018-09-05T13:58:04.818Z,7.17
2018-09-05T14:00:35.386Z,6.77
2018-09-05T14:03:06.103Z,5.17
2018-09-05T14:05:37.069Z,5.53
2018-09-05T14:08:07.480Z,6.10
2018-09-05T14:10:37.561Z,6.73
2018-09-05T14:13:08.078Z,6.63
2018-09-05T14:15:38.427Z,6.27
2018-09-05T14:18:09.010Z,8.10
2018-09-05T14:20:39.721Z,8.70
2018-09-05T14:23:10.120Z,5.67
2018-09-05T14:25:39.887Z,5.80
2018-09-05T14:28:10.010Z,9.77
2018-09-05T14:30:40.928Z,6.13
2018-09-05T14:33:10.998Z,6.00
2018-09-05T14:35:41.049Z,7.70
2018-09-05T14:38:11.119Z,5.57
2018-09-05T14:40:40.994Z,7.17
2018-09-05T14:43:10.963Z,6.30
2018-09-05T14:45:41.590Z,8.93
2018-09-05T14:48:11.737Z,8.67
2018-09-05T14:50:42.708Z,6.43
2018-09-05T14:53:13.463Z,8.53
2018-09-05T14:55:44.994Z,7.97
2018-09-05T14:58:16.617Z,10.90
2018-09-05T15:00:47.372Z,10.57
2018-09-05T15:03:19.238Z,7.80
2018-09-05T15:05:50.034Z,7.20
2018-09-05T15:08:21.294Z,6.10
2018-09-05T15:10:52.818Z,9.67
2018-09-05T15:13:23.554Z,10.83
2018-09-05T15:15:54.126Z,7.73
2018-09-05T15:18:24.189Z,5.57
2018-09-05T15:20:54.756Z,11.30
2018-09-05T15:23:27.104Z,5.50
2018-09-05T15:25:58.424Z,6.13
2018-09-05T15:28:29.480Z,6.10
2018-09-05T15:30:59.962Z,7.10
2018-09-05T15:33:30.182Z,5.30
2018-09-05T15:36:01.032Z,6.60
2018-09-05T15:38:31.200Z,6.23
2018-09-05T15:41:01.355Z,7.73
2018-09-05T15:43:31.848Z,7.00
2018-09-05T15:46:02.451Z,6.70
2018-09-05T15:48:32.930Z,7.70
2018-09-05T15:51:03.530Z,6.67
2018-09-05T15:53:33.846Z,6.13
2018-09-05T15:56:04.551Z,6.70
2018-09-05T15:58:35.108Z,7.10
2018-09-05T16:01:07.108Z,6.40
2018-09-05T16:03:38.521Z,8.67
2018-09-05T16:06:09.088Z,7.90
2018-09-05T16:08:42.694Z,6.90
2018-09-05T16:11:13.938Z,6.30
2018-09-05T16:13:44.936Z,6.73
2018-09-05T16:16:16.422Z,6.90
2018-09-05T16:18:46.528Z,6.57
2018-09-05T16:21:17.501Z,8.60
2018-09-05T16:23:48.685Z,8.53
2018-09-05T16:26:19.248Z,7.13
2018-09-05T16:28:50.779Z,6.53
2018-09-05T16:31:21.853Z,5.57
2018-09-05T16:33:52.620Z,8.63
2018-09-05T16:36:23.972Z,9.23
2018-09-05T16:38:54.947Z,8.00
2018-09-05T16:41:26.022Z,6.07
2018-09-05T16:43:56.764Z,5.50
2018-09-05T16:46:27.720Z,7.20
2018-09-05T16:48:59.104Z,6.87
2018-09-05T16:51:30.020Z,6.30
2018-09-05T16:54:02.111Z,6.53
2018-09-05T16:56:34.766Z,7.63
2018-09-05T16:59:06.683Z,8.67
2018-09-05T17:01:38.584Z,8.37
2018-09-05T17:04:09.410Z,6.27
2018-09-05T17:06:40.366Z,6.63
2018-09-05T17:09:12.638Z,6.30
2018-09-05T17:11:42.814Z,6.00
2018-09-05T17:14:13.328Z,5.63
2018-09-05T17:16:44.638Z,10.70
2018-09-05T17:19:17.656Z,5.97
2018-09-05T17:21:49.888Z,9.30
2018-09-05T17:24:20.967Z,6.10
2018-09-05T17:26:51.478Z,9.00
2018-09-05T17:29:21.963Z,7.00
2018-09-05T17:31:52.741Z,7.57
2018-09-05T17:34:24.822Z,6.43
2018-09-05T17:36:56.074Z,7.07
2018-09-05T17:39:26.797Z,8.50
2018-09-05T17:41:58.022Z,7.07
2018-09-05T17:44:29.360Z,9.90
2018-09-05T17:47:00.451Z,9.07
2018-09-05T17:49:31.254Z,9.67
2018-09-05T17:52:01.615Z,8.57
2018-09-05T17:54:32.640Z,9.73
2018-09-05T17:57:03.984Z,8.13
2018-09-05T17:59:33.892Z,9.47
2018-09-05T18:02:03.564Z,7.77
2018-09-05T18:04:33.469Z,13.80
2018-09-05T18:07:02.722Z,8.27
2018-09-05T18:09:31.741Z,11.20
2018-09-05T18:12:01.254Z,12.00
2018-09-05T18:14:30.327Z,10.13
2018-09-05T18:16:59.594Z,9.40
2018-09-05T18:19:29.766Z,8.87
2018-09-05T18:21:59.190Z,6.33
2018-09-05T18:24:28.584Z,8.53
2018-09-05T18:26:58.292Z,9.23
2018-09-05T18:29:27.945Z,7.13
2018-09-05T18:31:57.262Z,6.80
2018-09-05T18:34:26.762Z,6.53
2018-09-05T18:36:56.811Z,11.17
2018-09-05T18:39:26.859Z,7.30
2018-09-05T18:41:56.540Z,8.67
2018-09-05T18:44:26.571Z,8.83
2018-09-05T18:46:57.412Z,10.27
2018-09-05T18:49:27.582Z,8.00
2018-09-05T18:51:58.457Z,9.00
2018-09-05T18:54:28.460Z,9.37
2018-09-05T18:56:58.500Z,8.03
2018-09-05T18:59:28.450Z,11.40
2018-09-05T19:01:59.630Z,10.47
2018-09-05T19:04:30.181Z,9.70
2018-09-05T19:07:00.249Z,9.40
2018-09-05T19:09:30.063Z,8.77
2018-09-05T19:12:00.512Z,8.50
2018-09-05T19:14:30.992Z,11.27
2018-09-05T19:17:01.297Z,9.73
2018-09-05T19:19:31.419Z,9.97
2018-09-05T19:22:01.651Z,10.80
2018-09-05T19:24:31.688Z,9.83
2018-09-05T19:27:01.496Z,9.17
2018-09-05T19:29:31.794Z,9.80
2018-09-05T19:32:01.905Z,10.27
2018-09-05T19:34:32.037Z,10.10
2018-09-05T19:37:01.762Z,7.73
2018-09-05T19:39:31.424Z,8.53
2018-09-05T19:42:01.398Z,8.80
2018-09-05T19:44:31.855Z,9.03
2018-09-05T19:47:01.866Z,10.90
2018-09-05T19:49:31.909Z,18.07
2018-09-05T19:52:01.865Z,21.03
2018-09-05T19:54:32.026Z,21.00
2018-09-05T19:57:02.313Z,25.20
2018-09-05T19:59:32.510Z,23.70
2018-09-05T20:02:02.664Z,34.67
2018-09-05T20:04:32.968Z,24.23
2018-09-05T20:07:02.684Z,31.83
2018-09-05T20:09:33.240Z,28.87
2018-09-05T20:12:03.415Z,25.70
2018-09-05T20:14:33.621Z,14.43
2018-09-05T20:17:03.697Z,21.53
2018-09-05T20:19:33.340Z,13.67
2018-09-05T20:22:03.294Z,18.43
2018-09-05T20:24:33.285Z,10.57
2018-09-05T20:27:03.451Z,12.27
2018-09-05T20:29:33.973Z,15.40
2018-09-05T20:32:03.997Z,12.83
2018-09-05T20:34:33.975Z,14.47
2018-09-05T20:37:03.951Z,12.77
2018-09-05T20:39:33.783Z,10.30
2018-09-05T20:42:04.345Z,9.73
2018-09-05T20:44:34.385Z,8.70
2018-09-05T20:47:07.086Z,7.43
2018-09-05T20:49:38.735Z,15.93
2018-09-05T20:52:08.417Z,8.30
2018-09-05T20:54:38.434Z,13.10
2018-09-05T20:57:08.010Z,11.53
2018-09-05T20:59:37.627Z,10.20
2018-09-05T21:02:08.032Z,8.40
2018-09-05T21:04:37.873Z,8.80
2018-09-05T21:07:07.985Z,10.53
2018-09-05T21:09:38.249Z,10.93
2018-09-05T21:12:08.417Z,9.90
2018-09-05T21:14:38.018Z,11.07
2018-09-05T21:17:08.025Z,10.17
2018-09-05T21:19:38.529Z,14.73
2018-09-05T21:22:08.441Z,12.30
2018-09-05T21:24:38.363Z,11.97
2018-09-05T21:27:08.095Z,8.83
2018-09-05T21:29:38.043Z,10.77
2018-09-05T21:32:08.335Z,11.43
2018-09-05T21:34:38.436Z,10.33
2018-09-05T21:37:08.544Z,17.10
2018-09-05T21:39:38.534Z,12.53
2018-09-05T21:42:08.228Z,10.20
2018-09-05T21:44:38.738Z,17.70
2018-09-05T21:47:08.907Z,9.87
2018-09-05T21:49:38.848Z,11.17
2018-09-05T21:52:09.373Z,10.97
2018-09-05T21:54:39.243Z,13.50
2018-09-05T21:57:09.269Z,11.43
2018-09-05T21:59:39.357Z,11.13
2018-09-05T22:02:09.503Z,11.73
2018-09-05T22:04:39.844Z,11.93
2018-09-05T22:07:09.945Z,11.90
2018-09-05T22:09:39.601Z,11.10
2018-09-05T22:12:09.410Z,9.50
2018-09-05T22:14:38.930Z,8.57
2018-09-05T22:17:09.390Z,11.17
2018-09-05T22:19:39.332Z,10.67
2018-09-05T22:22:09.384Z,9.97
2018-09-05T22:24:39.312Z,10.13
2018-09-05T22:27:09.319Z,12.90
2018-09-05T22:29:39.449Z,10.37
2018-09-05T22:32:09.337Z,12.17
2018-09-05T22:34:39.141Z,9.83
2018-09-05T22:37:09.280Z,10.73
2018-09-05T22:39:39.446Z,8.70
2018-09-05T22:42:12.376Z,10.87
2018-09-05T22:44:54.414Z,10.87
2018-09-05T22:47:34.948Z,10.13
2018-09-05T22:52:25.219Z,11.33
2018-09-05T22:55:16.533Z,9.50
2018-09-05T22:58:03.127Z,12.13
2018-09-05T23:01:19.511Z,10.63
2018-09-05T23:04:04.357Z,11.43
2018-09-05T23:07:52.909Z,10.70
2018-09-05T23:10:33.365Z,10.57
2018-09-05T23:13:13.679Z,16.50
2018-09-05T23:15:53.969Z,13.70
2018-09-05T23:20:43.379Z,13.93
2018-09-05T23:23:24.131Z,13.13
2018-09-05T23:25:54.093Z,14.83
2018-09-05T23:28:23.888Z,12.03
2018-09-05T23:30:53.833Z,13.70
2018-09-05T23:33:23.976Z,11.90
2018-09-05T23:35:54.181Z,12.33
2018-09-05T23:38:24.053Z,10.50
2018-09-05T23:40:54.294Z,13.57
2018-09-05T23:43:24.324Z,12.73
2018-09-05T23:45:54.585Z,14.90
2018-09-05T23:48:24.521Z,10.70
2018-09-05T23:50:54.351Z,12.53
2018-09-05T23:53:23.900Z,10.60
2018-09-05T23:55:53.816Z,11.63
2018-09-05T23:58:24.001Z,12.40
